RPVD

Sibulan Airport

Dumaguete City, Philippines
TAF RPVD 132300Z 1400/1424 02006KT 9999 FEW015 SCT080 TEMPO 1400/1406 36008KT 9000 -SHRA FEW014CB SCT015 BKN080
Issued Valid From Valid To
Dec-13 @ 23:00 UTC
(5 hours ago)
Dec-14 @ 00:00 UTC
(4 hours ago)
Dec-15 @ 00:00 UTC
(in 20 hours)
Dec-14 @ 00:00 to Dec-15 @ 00:00
TAF RPVD 132300Z 1400/1424 02006KT 9999 FEW015 SCT080
Wind Visibility Clouds
20° at 6 knots 10,000+ meters
  • Few at 1,500' AGL
  • Scattered at 8,000' AGL
Temporary Dec-14 @ 00:00 to Dec-14 @ 06:00
TEMPO 1400/1406 36008KT 9000 -SHRA FEW014CB SCT015 BKN080
Wind Visibility Clouds Conditions
360° at 8 knots 8,996 meters
  • Few at 1,400' AGL
  • Scattered at 1,500' AGL
  • Broken at 8,000' AGL
  • Light Rain
TAF RPVD 132300Z 1400/1424 02006KT 9999 FEW015 SCT080 TEMPO 1400/1406 36008KT 9000 -SHRA FEW014CB SCT015 BKN080
Issued Dec-13 @ 23:00 UTC
(5 hours ago)
Valid From Dec-14 @ 00:00 UTC
(4 hours ago)
Valid To Dec-15 @ 00:00 UTC
(in 20 hours)
Dec-14 @ 00:00 - Dec-15 @ 00:00
Wind Visibility
20° at 6 knots 10,000+ meters
Clouds
  • Few at 1,500' AGL
  • Scattered at 8,000' AGL
Temporary Dec-14 @ 00:00 - Dec-14 @ 06:00
Wind Visibility
360° at 8 knots 8,996 meters
Clouds
  • Few at 1,400' AGL
  • Scattered at 1,500' AGL
  • Broken at 8,000' AGL
Conditions
  • Light Rain